Etusivu
METAR-TAF:

METAR-TAF

Lentoasemat :

Santo Domingo, Dominikaaninen tasavalta

Leveyspiiri: 18-34-32N, Pituuspiiri: 069-58-53W, korkeus merenpinnasta: 15 m

Tämänhetkinen sää

Tämä raportti tehtiin 10 tuntia ja 50 minuuttia sitten, kello 23.00 UTC
Tuuli 5 kn pohjoisesta
Lämpötila 25°C
Kosteus 89%
Ilmanpaine 1015 hPa
Näkyvyys 10 km tai enemmän
Muutamia pilviä 1800 ft:n korkeudessa

METAR: MDJB 242300Z 36005KT 9999 FEW018 25/23 Q1015

Aika: 05:50 (09:50 UTC)

Sääennuste

Tämä raportti tehtiin 5 tuntia ja 50 minuuttia sitten, kello 04.00 UTC
Ennuste voimassa 25. päivästä klo 06 UTC - 26. päivään klo 06 UTC
Tuuli 8 kn pohjoisesta
Näkyvyys 10 km tai enemmän
Muutamia pilviä 1800 ft:n korkeudessa

TAF: MDJB 250400Z 2506/2606 36008KT 9999 FEW018

Säähavainnot ja -ennusteet yli 4000 lentoasemalta (METAR- ja TAF-raportit).

Käytössä olevat sääasemat on merkitty karttaan keltaisilla ja punaisilla pisteillä.

Aseta hiiri pisteen päälle nähdäksesi sääaseman nimen.

Klikkaa sitten nähdäksesi säähavainnot ja -ennusteet.

Kartan vaihtaminen: klikkaa mustalla rastilla varustettuja vihreitä pisteitä, niin voit zoomata sisään; viivalla varustettua vihreää pistettä, niin voit zoomata ulos tai vihreitä nuolia, niin pääset viereisille kartoille.


METAR-TAF: